sensor_id;sensor_type;location;lat;lon;timestamp;pressure;altitude;pressure_sealevel;temperature;humidity
10064;BME280;5071;52.360;13.134;2024-03-02T00:04:21;99442.09;;;5.43;100.00
10064;BME280;5071;52.360;13.134;2024-03-02T00:09:22;99441.22;;;5.42;100.00
10064;BME280;5071;52.360;13.134;2024-03-02T00:14:28;99436.91;;;5.35;100.00
10064;BME280;5071;52.360;13.134;2024-03-02T00:19:33;99439.56;;;5.34;100.00
10064;BME280;5071;52.360;13.134;2024-03-02T00:24:35;99435.13;;;5.39;100.00
10064;BME280;5071;52.360;13.134;2024-03-02T00:29:37;99430.69;;;5.42;100.00
10064;BME280;5071;52.360;13.134;2024-03-02T00:34:41;99425.44;;;5.42;100.00
10064;BME280;5071;52.360;13.134;2024-03-02T00:39:43;99426.22;;;5.46;100.00
10064;BME280;5071;52.360;13.134;2024-03-02T00:44:45;99426.28;;;5.44;100.00
10064;BME280;5071;52.360;13.134;2024-03-02T00:49:48;99425.38;;;5.45;100.00
10064;BME280;5071;52.360;13.134;2024-03-02T00:54:50;99427.97;;;5.49;100.00
10064;BME280;5071;52.360;13.134;2024-03-02T00:59:52;99423.56;;;5.51;100.00
10064;BME280;5071;52.360;13.134;2024-03-02T01:04:56;99421.78;;;5.53;100.00
10064;BME280;5071;52.360;13.134;2024-03-02T01:09:58;99418.19;;;5.60;100.00
10064;BME280;5071;52.360;13.134;2024-03-02T01:15:00;99414.69;;;5.58;100.00
10064;BME280;5071;52.360;13.134;2024-03-02T01:20:06;99416.38;;;5.62;100.00
10064;BME280;5071;52.360;13.134;2024-03-02T01:25:09;99409.44;;;5.58;100.00
10064;BME280;5071;52.360;13.134;2024-03-02T01:30:11;99404.94;;;5.64;100.00
10064;BME280;5071;52.360;13.134;2024-03-02T01:35:15;99392.59;;;5.68;100.00
10064;BME280;5071;52.360;13.134;2024-03-02T01:40:17;99390.00;;;5.67;100.00
10064;BME280;5071;52.360;13.134;2024-03-02T01:45:19;99381.19;;;5.69;100.00
10064;BME280;5071;52.360;13.134;2024-03-02T01:50:27;99371.53;;;5.70;100.00
10064;BME280;5071;52.360;13.134;2024-03-02T01:55:29;99376.81;;;5.67;100.00
10064;BME280;5071;52.360;13.134;2024-03-02T02:00:31;99373.34;;;5.64;100.00
10064;BME280;5071;52.360;13.134;2024-03-02T02:05:35;99361.97;;;5.64;100.00
10064;BME280;5071;52.360;13.134;2024-03-02T02:10:37;99362.06;;;5.58;100.00
10064;BME280;5071;52.360;13.134;2024-03-02T02:15:39;99358.63;;;5.51;100.00
10064;BME280;5071;52.360;13.134;2024-03-02T02:20:42;99363.00;;;5.54;100.00
10064;BME280;5071;52.360;13.134;2024-03-02T02:25:46;99356.06;;;5.48;100.00
10064;BME280;5071;52.360;13.134;2024-03-02T02:30:48;99358.59;;;5.56;100.00
10064;BME280;5071;52.360;13.134;2024-03-02T02:35:50;99352.38;;;5.58;100.00
10064;BME280;5071;52.360;13.134;2024-03-02T02:40:54;99355.84;;;5.62;100.00
10064;BME280;5071;52.360;13.134;2024-03-02T02:45:56;99361.13;;;5.60;100.00
10064;BME280;5071;52.360;13.134;2024-03-02T02:50:58;99357.50;;;5.69;100.00
10064;BME280;5071;52.360;13.134;2024-03-02T02:56:01;99360.16;;;5.66;100.00
10064;BME280;5071;52.360;13.134;2024-03-02T03:01:03;99367.22;;;5.65;100.00
10064;BME280;5071;52.360;13.134;2024-03-02T03:06:05;99359.25;;;5.69;100.00
10064;BME280;5071;52.360;13.134;2024-03-02T03:11:09;99362.78;;;5.68;100.00
10064;BME280;5071;52.360;13.134;2024-03-02T03:16:11;99358.38;;;5.68;100.00
10064;BME280;5071;52.360;13.134;2024-03-02T03:21:14;99357.53;;;5.66;100.00
10064;BME280;5071;52.360;13.134;2024-03-02T03:26:17;99355.78;;;5.67;100.00
10064;BME280;5071;52.360;13.134;2024-03-02T03:31:20;99365.53;;;5.60;100.00
10064;BME280;5071;52.360;13.134;2024-03-02T03:36:22;99362.00;;;5.61;100.00
10064;BME280;5071;52.360;13.134;2024-03-02T03:41:25;99361.09;;;5.63;100.00
10064;BME280;5071;52.360;13.134;2024-03-02T03:46:27;99371.56;;;5.67;100.00
10064;BME280;5071;52.360;13.134;2024-03-02T03:51:29;99372.41;;;5.69;100.00
10064;BME280;5071;52.360;13.134;2024-03-02T03:56:32;99361.09;;;5.65;100.00
10064;BME280;5071;52.360;13.134;2024-03-02T04:01:34;99371.63;;;5.65;100.00
10064;BME280;5071;52.360;13.134;2024-03-02T04:06:37;99381.13;;;5.72;100.00
10064;BME280;5071;52.360;13.134;2024-03-02T04:11:40;99386.38;;;5.75;100.00
10064;BME280;5071;52.360;13.134;2024-03-02T04:16:42;99379.31;;;5.77;100.00
10064;BME280;5071;52.360;13.134;2024-03-02T04:21:44;99385.38;;;5.82;100.00
10064;BME280;5071;52.360;13.134;2024-03-02T04:26:48;99392.31;;;5.88;100.00
10064;BME280;5071;52.360;13.134;2024-03-02T04:31:51;99394.94;;;5.90;100.00
10064;BME280;5071;52.360;13.134;2024-03-02T04:36:52;99398.38;;;5.96;100.00
10064;BME280;5071;52.360;13.134;2024-03-02T04:41:56;99406.22;;;5.99;100.00
10064;BME280;5071;52.360;13.134;2024-03-02T04:46:58;99400.97;;;5.99;100.00
10064;BME280;5071;52.360;13.134;2024-03-02T04:52:00;99405.38;;;5.99;100.00
10064;BME280;5071;52.360;13.134;2024-03-02T04:57:04;99416.81;;;5.96;100.00
10064;BME280;5071;52.360;13.134;2024-03-02T05:02:06;99422.06;;;5.98;100.00
10064;BME280;5071;52.360;13.134;2024-03-02T05:07:08;99413.28;;;5.97;100.00
10064;BME280;5071;52.360;13.134;2024-03-02T05:12:14;99418.47;;;6.02;100.00
10064;BME280;5071;52.360;13.134;2024-03-02T05:17:16;99417.38;;;6.15;100.00
10064;BME280;5071;52.360;13.134;2024-03-02T05:22:18;99435.88;;;6.14;100.00
10064;BME280;5071;52.360;13.134;2024-03-02T05:27:21;99433.16;;;6.18;100.00
10064;BME280;5071;52.360;13.134;2024-03-02T05:32:24;99435.91;;;6.12;100.00
10064;BME280;5071;52.360;13.134;2024-03-02T05:37:26;99438.53;;;6.12;100.00
10064;BME280;5071;52.360;13.134;2024-03-02T05:42:29;99450.72;;;6.19;100.00
10064;BME280;5071;52.360;13.134;2024-03-02T05:47:31;99453.38;;;6.18;100.00
10064;BME280;5071;52.360;13.134;2024-03-02T05:52:33;99464.78;;;6.18;100.00
10064;BME280;5071;52.360;13.134;2024-03-02T05:57:36;99465.63;;;6.20;100.00
10064;BME280;5071;52.360;13.134;2024-03-02T06:02:39;99459.50;;;6.18;100.00
10064;BME280;5071;52.360;13.134;2024-03-02T06:07:41;99468.25;;;6.20;100.00
10064;BME280;5071;52.360;13.134;2024-03-02T06:12:46;99467.38;;;6.20;100.00
10064;BME280;5071;52.360;13.134;2024-03-02T06:17:48;99465.56;;;6.23;100.00
10064;BME280;5071;52.360;13.134;2024-03-02T06:22:50;99462.94;;;6.23;100.00
10064;BME280;5071;52.360;13.134;2024-03-02T06:27:53;99466.44;;;6.26;100.00
10064;BME280;5071;52.360;13.134;2024-03-02T06:32:55;99478.56;;;6.34;100.00
10064;BME280;5071;52.360;13.134;2024-03-02T06:37:58;99475.03;;;6.37;100.00
10064;BME280;5071;52.360;13.134;2024-03-02T06:43:01;99482.00;;;6.41;100.00
10064;BME280;5071;52.360;13.134;2024-03-02T06:48:04;99474.88;;;6.46;100.00
10064;BME280;5071;52.360;13.134;2024-03-02T06:53:06;99473.97;;;6.49;100.00
10064;BME280;5071;52.360;13.134;2024-03-02T06:58:09;99484.47;;;6.52;100.00
10064;BME280;5071;52.360;13.134;2024-03-02T07:03:11;99471.69;;;6.78;100.00
10064;BME280;5071;52.360;13.134;2024-03-02T07:08:14;99477.03;;;6.75;100.00
10064;BME280;5071;52.360;13.134;2024-03-02T07:13:17;99484.00;;;6.79;100.00
10064;BME280;5071;52.360;13.134;2024-03-02T07:18:19;99485.66;;;6.85;100.00
10064;BME280;5071;52.360;13.134;2024-03-02T07:23:21;99486.50;;;6.87;100.00
10064;BME280;5071;52.360;13.134;2024-03-02T07:28:25;99498.75;;;6.91;100.00
10064;BME280;5071;52.360;13.134;2024-03-02T07:33:28;99496.81;;;6.99;100.00
10064;BME280;5071;52.360;13.134;2024-03-02T07:38:30;99503.84;;;7.00;100.00
10064;BME280;5071;52.360;13.134;2024-03-02T07:43:34;99515.06;;;7.13;100.00
10064;BME280;5071;52.360;13.134;2024-03-02T07:48:36;99524.56;;;7.22;100.00
10064;BME280;5071;52.360;13.134;2024-03-02T07:53:38;99541.31;;;7.21;100.00
10064;BME280;5071;52.360;13.134;2024-03-02T07:58:41;99536.88;;;7.23;100.00
10064;BME280;5071;52.360;13.134;2024-03-02T08:03:44;99535.06;;;7.25;100.00
10064;BME280;5071;52.360;13.134;2024-03-02T08:08:47;99539.31;;;7.34;100.00
10064;BME280;5071;52.360;13.134;2024-03-02T08:13:50;99549.75;;;7.40;100.00
10064;BME280;5071;52.360;13.134;2024-03-02T08:18:52;99548.84;;;7.41;100.00
10064;BME280;5071;52.360;13.134;2024-03-02T08:23:55;99553.09;;;7.50;100.00
10064;BME280;5071;52.360;13.134;2024-03-02T08:28:58;99569.91;;;7.46;100.00
10064;BME280;5071;52.360;13.134;2024-03-02T08:34:01;99565.09;;;7.68;100.00
10064;BME280;5071;52.360;13.134;2024-03-02T08:39:03;99583.69;;;7.60;100.00
10064;BME280;5071;52.360;13.134;2024-03-02T08:44:06;99583.63;;;7.65;100.00
10064;BME280;5071;52.360;13.134;2024-03-02T08:49:09;99579.78;;;7.81;100.00
10064;BME280;5071;52.360;13.134;2024-03-02T08:54:11;99579.69;;;7.86;100.00
10064;BME280;5071;52.360;13.134;2024-03-02T08:59:15;99579.72;;;7.83;100.00
10064;BME280;5071;52.360;13.134;2024-03-02T09:04:17;99588.47;;;8.30;100.00
10064;BME280;5071;52.360;13.134;2024-03-02T09:09:19;99592.06;;;8.26;100.00
10064;BME280;5071;52.360;13.134;2024-03-02T09:14:22;99593.50;;;8.41;100.00
10064;BME280;5071;52.360;13.134;2024-03-02T09:19:24;99601.28;;;8.48;100.00
10064;BME280;5071;52.360;13.134;2024-03-02T09:24:27;99601.63;;;8.31;100.00
10064;BME280;5071;52.360;13.134;2024-03-02T09:29:31;99596.97;;;8.44;100.00
10064;BME280;5071;52.360;13.134;2024-03-02T09:34:33;99610.00;;;8.53;100.00
10064;BME280;5071;52.360;13.134;2024-03-02T09:39:35;99608.28;;;8.52;100.00
10064;BME280;5071;52.360;13.134;2024-03-02T09:44:38;99601.84;;;8.64;100.00
10064;BME280;5071;52.360;13.134;2024-03-02T09:49:43;99604.16;;;8.78;100.00
10064;BME280;5071;52.360;13.134;2024-03-02T09:54:47;99598.63;;;8.87;100.00
10064;BME280;5071;52.360;13.134;2024-03-02T09:59:51;99603.19;;;9.18;100.00
10064;BME280;5071;52.360;13.134;2024-03-02T10:04:53;99601.06;;;9.32;100.00
10064;BME280;5071;52.360;13.134;2024-03-02T10:09:57;99606.44;;;9.29;100.00
10064;BME280;5071;52.360;13.134;2024-03-02T10:15:05;99601.38;;;9.54;100.00
10064;BME280;5071;52.360;13.134;2024-03-02T10:20:21;99609.09;;;9.62;100.00
10064;BME280;5071;52.360;13.134;2024-03-02T10:25:30;99596.69;;;9.97;100.00
10064;BME280;5071;52.360;13.134;2024-03-02T10:31:00;99598.44;;;9.65;100.00
10064;BME280;5071;52.360;13.134;2024-03-02T10:36:02;99592.97;;;9.71;100.00
10064;BME280;5071;52.360;13.134;2024-03-02T10:41:05;99596.94;;;9.55;100.00
10064;BME280;5071;52.360;13.134;2024-03-02T10:46:08;99601.34;;;9.56;100.00
10064;BME280;5071;52.360;13.134;2024-03-02T10:51:10;99603.56;;;9.71;100.00
10064;BME280;5071;52.360;13.134;2024-03-02T10:56:16;99612.34;;;9.73;100.00
10064;BME280;5071;52.360;13.134;2024-03-02T11:01:23;99613.09;;;9.79;100.00
10064;BME280;5071;52.360;13.134;2024-03-02T11:06:28;99599.94;;;10.07;100.00
10064;BME280;5071;52.360;13.134;2024-03-02T11:11:32;99595.47;;;10.68;97.45
10064;BME280;5071;52.360;13.134;2024-03-02T11:16:38;99588.81;;;11.10;95.14
10064;BME280;5071;52.360;13.134;2024-03-02T11:21:41;99589.81;;;11.59;92.28
10064;BME280;5071;52.360;13.134;2024-03-02T11:26:44;99602.28;;;11.57;92.67
10064;BME280;5071;52.360;13.134;2024-03-02T11:32:01;99593.84;;;12.20;90.48
10064;BME280;5071;52.360;13.134;2024-03-02T11:37:04;99593.31;;;12.10;88.49
10064;BME280;5071;52.360;13.134;2024-03-02T11:42:07;99595.69;;;12.18;87.97
10064;BME280;5071;52.360;13.134;2024-03-02T11:47:27;99600.78;;;12.93;86.63
10064;BME280;5071;52.360;13.134;2024-03-02T11:52:36;99592.69;;;13.17;84.29
10064;BME280;5071;52.360;13.134;2024-03-02T11:57:40;99597.72;;;12.58;85.39
10064;BME280;5071;52.360;13.134;2024-03-02T12:02:43;99593.69;;;12.70;84.80
10064;BME280;5071;52.360;13.134;2024-03-02T12:07:45;99596.47;;;12.89;83.44
10064;BME280;5071;52.360;13.134;2024-03-02T12:12:56;99590.56;;;12.59;84.88
10064;BME280;5071;52.360;13.134;2024-03-02T12:18:01;99581.38;;;12.90;83.43
10064;BME280;5071;52.360;13.134;2024-03-02T12:23:04;99583.91;;;13.37;79.89
10064;BME280;5071;52.360;13.134;2024-03-02T12:28:06;99573.22;;;14.17;76.35
10064;BME280;5071;52.360;13.134;2024-03-02T12:33:11;99570.34;;;14.22;76.08
10064;BME280;5071;52.360;13.134;2024-03-02T12:38:14;99566.44;;;14.29;73.80
10064;BME280;5071;52.360;13.134;2024-03-02T12:43:16;99572.06;;;13.65;75.23
10064;BME280;5071;52.360;13.134;2024-03-02T12:48:20;99576.44;;;13.45;75.10
10064;BME280;5071;52.360;13.134;2024-03-02T12:53:22;99559.47;;;13.48;75.89
10064;BME280;5071;52.360;13.134;2024-03-02T12:58:27;99563.97;;;13.03;78.73
10064;BME280;5071;52.360;13.134;2024-03-02T13:03:31;99565.38;;;13.54;77.12
10064;BME280;5071;52.360;13.134;2024-03-02T13:08:33;99561.00;;;13.53;77.43
10064;BME280;5071;52.360;13.134;2024-03-02T13:13:35;99557.88;;;13.83;79.00
10064;BME280;5071;52.360;13.134;2024-03-02T13:18:39;99558.38;;;13.52;77.98
10064;BME280;5071;52.360;13.134;2024-03-02T13:23:42;99558.63;;;13.46;78.16
10064;BME280;5071;52.360;13.134;2024-03-02T13:28:44;99542.97;;;13.58;77.82
10064;BME280;5071;52.360;13.134;2024-03-02T13:33:48;99543.91;;;13.57;73.37
10064;BME280;5071;52.360;13.134;2024-03-02T13:38:50;99547.66;;;13.53;73.93
10064;BME280;5071;52.360;13.134;2024-03-02T13:43:52;99550.84;;;13.61;71.92
10064;BME280;5071;52.360;13.134;2024-03-02T13:48:57;99557.72;;;13.25;70.23
10064;BME280;5071;52.360;13.134;2024-03-02T13:53:59;99549.81;;;13.64;70.28
10064;BME280;5071;52.360;13.134;2024-03-02T13:59:01;99544.28;;;13.89;68.46
10064;BME280;5071;52.360;13.134;2024-03-02T14:04:04;99537.94;;;14.11;68.13
10064;BME280;5071;52.360;13.134;2024-03-02T14:09:07;99537.63;;;13.58;70.08
10064;BME280;5071;52.360;13.134;2024-03-02T14:14:09;99541.44;;;13.92;69.57
10064;BME280;5071;52.360;13.134;2024-03-02T14:19:12;99542.84;;;13.61;69.36
10064;BME280;5071;52.360;13.134;2024-03-02T14:24:15;99551.84;;;13.79;68.99
10064;BME280;5071;52.360;13.134;2024-03-02T14:29:16;99538.94;;;13.89;68.26
10064;BME280;5071;52.360;13.134;2024-03-02T14:34:20;99542.91;;;13.60;69.05
10064;BME280;5071;52.360;13.134;2024-03-02T14:39:22;99538.94;;;13.89;67.93
10064;BME280;5071;52.360;13.134;2024-03-02T14:44:24;99541.81;;;14.04;66.86
10064;BME280;5071;52.360;13.134;2024-03-02T14:49:27;99545.28;;;14.06;66.86
10064;BME280;5071;52.360;13.134;2024-03-02T14:54:29;99545.09;;;13.71;67.23
10064;BME280;5071;52.360;13.134;2024-03-02T14:59:33;99536.72;;;13.59;69.34
10064;BME280;5071;52.360;13.134;2024-03-02T15:04:37;99534.75;;;13.84;69.18
10064;BME280;5071;52.360;13.134;2024-03-02T15:09:39;99534.44;;;13.71;69.30
10064;BME280;5071;52.360;13.134;2024-03-02T15:14:41;99527.84;;;13.59;71.04
10064;BME280;5071;52.360;13.134;2024-03-02T15:19:45;99527.53;;;13.46;71.59
10064;BME280;5071;52.360;13.134;2024-03-02T15:24:47;99523.28;;;13.42;72.43
10064;BME280;5071;52.360;13.134;2024-03-02T15:29:49;99529.59;;;13.17;72.42
10064;BME280;5071;52.360;13.134;2024-03-02T15:34:52;99531.50;;;13.36;72.70
10064;BME280;5071;52.360;13.134;2024-03-02T15:39:55;99533.34;;;13.13;72.96
10064;BME280;5071;52.360;13.134;2024-03-02T15:44:57;99531.31;;;12.98;73.82
10064;BME280;5071;52.360;13.134;2024-03-02T15:50:00;99540.28;;;12.75;74.10
10064;BME280;5071;52.360;13.134;2024-03-02T15:55:02;99533.09;;;12.77;74.14
10064;BME280;5071;52.360;13.134;2024-03-02T16:00:07;99550.72;;;12.79;74.93
10064;BME280;5071;52.360;13.134;2024-03-02T16:05:10;99535.63;;;12.58;76.34
10064;BME280;5071;52.360;13.134;2024-03-02T16:10:13;99539.91;;;12.38;77.74
10064;BME280;5071;52.360;13.134;2024-03-02T16:15:15;99539.81;;;12.18;79.19
10064;BME280;5071;52.360;13.134;2024-03-02T16:20:19;99530.59;;;12.04;80.85
10064;BME280;5071;52.360;13.134;2024-03-02T16:25:20;99534.84;;;11.85;81.70
10064;BME280;5071;52.360;13.134;2024-03-02T16:30:22;99537.34;;;11.64;83.28
10064;BME280;5071;52.360;13.134;2024-03-02T16:35:25;99549.44;;;11.48;84.08
10064;BME280;5071;52.360;13.134;2024-03-02T16:40:27;99539.59;;;11.26;85.66
10064;BME280;5071;52.360;13.134;2024-03-02T16:45:30;99530.19;;;11.16;85.91
10064;BME280;5071;52.360;13.134;2024-03-02T16:50:33;99542.91;;;11.06;84.98
10064;BME280;5071;52.360;13.134;2024-03-02T16:55:35;99550.63;;;10.87;86.13
10064;BME280;5071;52.360;13.134;2024-03-02T17:00:37;99563.38;;;10.76;86.85
10064;BME280;5071;52.360;13.134;2024-03-02T17:05:40;99566.53;;;10.61;88.19
10064;BME280;5071;52.360;13.134;2024-03-02T17:10:42;99571.19;;;10.53;88.24
10064;BME280;5071;52.360;13.134;2024-03-02T17:15:44;99569.63;;;10.45;88.15
10064;BME280;5071;52.360;13.134;2024-03-02T17:20:47;99575.19;;;10.38;88.57
10064;BME280;5071;52.360;13.134;2024-03-02T17:25:57;99585.41;;;10.20;90.04
10064;BME280;5071;52.360;13.134;2024-03-02T17:30:59;99591.34;;;9.99;91.37
10064;BME280;5071;52.360;13.134;2024-03-02T17:36:03;99590.91;;;9.81;92.26
10064;BME280;5071;52.360;13.134;2024-03-02T17:41:05;99598.63;;;9.59;93.61
10064;BME280;5071;52.360;13.134;2024-03-02T17:46:07;99603.78;;;9.29;95.24
10064;BME280;5071;52.360;13.134;2024-03-02T17:51:11;99604.91;;;9.19;96.44
10064;BME280;5071;52.360;13.134;2024-03-02T17:56:13;99611.22;;;9.15;97.27
10064;BME280;5071;52.360;13.134;2024-03-02T18:01:15;99601.72;;;9.06;97.30
10064;BME280;5071;52.360;13.134;2024-03-02T18:06:19;99597.78;;;8.87;98.81
10064;BME280;5071;52.360;13.134;2024-03-02T18:11:21;99596.31;;;8.75;99.51
10064;BME280;5071;52.360;13.134;2024-03-02T18:16:23;99596.78;;;8.53;100.00
10064;BME280;5071;52.360;13.134;2024-03-02T18:21:27;99597.59;;;8.55;100.00
10064;BME280;5071;52.360;13.134;2024-03-02T18:26:29;99605.03;;;8.38;100.00
10064;BME280;5071;52.360;13.134;2024-03-02T18:31:31;99594.38;;;8.41;100.00
10064;BME280;5071;52.360;13.134;2024-03-02T18:36:34;99596.19;;;8.39;100.00
10064;BME280;5071;52.360;13.134;2024-03-02T18:41:36;99592.91;;;8.28;100.00
10064;BME280;5071;52.360;13.134;2024-03-02T18:46:38;99590.97;;;8.36;100.00
10064;BME280;5071;52.360;13.134;2024-03-02T18:51:42;99594.50;;;8.35;100.00
10064;BME280;5071;52.360;13.134;2024-03-02T18:56:44;99582.06;;;8.42;100.00
10064;BME280;5071;52.360;13.134;2024-03-02T19:01:46;99590.03;;;8.38;100.00
10064;BME280;5071;52.360;13.134;2024-03-02T19:06:50;99583.13;;;8.31;100.00
10064;BME280;5071;52.360;13.134;2024-03-02T19:11:52;99575.34;;;8.24;100.00
10064;BME280;5071;52.360;13.134;2024-03-02T19:16:54;99575.63;;;8.11;100.00
10064;BME280;5071;52.360;13.134;2024-03-02T19:21:57;99578.53;;;7.99;100.00
10064;BME280;5071;52.360;13.134;2024-03-02T19:27:08;99570.69;;;7.96;100.00
10064;BME280;5071;52.360;13.134;2024-03-02T19:32:10;99573.25;;;7.99;100.00
10064;BME280;5071;52.360;13.134;2024-03-02T19:37:17;99565.50;;;7.90;100.00
10064;BME280;5071;52.360;13.134;2024-03-02T19:42:19;99557.19;;;7.66;100.00
10064;BME280;5071;52.360;13.134;2024-03-02T19:47:21;99567.97;;;7.54;100.00
10064;BME280;5071;52.360;13.134;2024-03-02T19:52:26;99555.53;;;7.61;100.00
10064;BME280;5071;52.360;13.134;2024-03-02T19:57:28;99555.34;;;7.70;100.00
10064;BME280;5071;52.360;13.134;2024-03-02T20:02:30;99567.09;;;7.53;100.00
10064;BME280;5071;52.360;13.134;2024-03-02T20:07:34;99554.91;;;7.46;100.00
10064;BME280;5071;52.360;13.134;2024-03-02T20:12:36;99541.81;;;7.42;100.00
10064;BME280;5071;52.360;13.134;2024-03-02T20:17:39;99545.31;;;7.42;100.00
10064;BME280;5071;52.360;13.134;2024-03-02T20:22:43;99534.00;;;7.35;100.00
10064;BME280;5071;52.360;13.134;2024-03-02T20:27:46;99550.63;;;7.40;100.00
10064;BME280;5071;52.360;13.134;2024-03-02T20:32:48;99536.59;;;7.38;100.00
10064;BME280;5071;52.360;13.134;2024-03-02T20:37:51;99529.50;;;7.40;100.00
10064;BME280;5071;52.360;13.134;2024-03-02T20:42:53;99531.56;;;7.25;100.00
10064;BME280;5071;52.360;13.134;2024-03-02T20:48:05;99540.34;;;7.25;100.00
10064;BME280;5071;52.360;13.134;2024-03-02T20:53:21;99536.72;;;7.32;100.00
10064;BME280;5071;52.360;13.134;2024-03-02T20:58:24;99530.72;;;7.23;100.00
10064;BME280;5071;52.360;13.134;2024-03-02T21:03:26;99530.78;;;7.19;100.00
10064;BME280;5071;52.360;13.134;2024-03-02T21:08:30;99531.75;;;7.14;100.00
10064;BME280;5071;52.360;13.134;2024-03-02T21:13:32;99525.53;;;7.16;100.00
10064;BME280;5071;52.360;13.134;2024-03-02T21:18:34;99526.41;;;7.17;100.00
10064;BME280;5071;52.360;13.134;2024-03-02T21:23:38;99516.66;;;7.22;100.00
10064;BME280;5071;52.360;13.134;2024-03-02T21:28:40;99524.50;;;7.27;100.00
10064;BME280;5071;52.360;13.134;2024-03-02T21:33:42;99515.81;;;7.18;100.00
10064;BME280;5071;52.360;13.134;2024-03-02T21:38:46;99524.28;;;7.37;100.00
10064;BME280;5071;52.360;13.134;2024-03-02T21:43:48;99521.72;;;7.33;100.00
10064;BME280;5071;52.360;13.134;2024-03-02T21:48:50;99512.31;;;7.18;100.00
10064;BME280;5071;52.360;13.134;2024-03-02T21:53:53;99513.78;;;7.34;100.00
10064;BME280;5071;52.360;13.134;2024-03-02T21:58:56;99520.28;;;7.16;100.00
10064;BME280;5071;52.360;13.134;2024-03-02T22:03:58;99513.03;;;7.26;100.00
10064;BME280;5071;52.360;13.134;2024-03-02T22:09:01;99506.97;;;7.23;100.00
10064;BME280;5071;52.360;13.134;2024-03-02T22:14:06;99503.41;;;7.25;100.00
10064;BME280;5071;52.360;13.134;2024-03-02T22:19:08;99497.66;;;7.48;100.00
10064;BME280;5071;52.360;13.134;2024-03-02T22:24:13;99499.28;;;7.55;100.00
10064;BME280;5071;52.360;13.134;2024-03-02T22:29:15;99490.22;;;7.24;100.00
10064;BME280;5071;52.360;13.134;2024-03-02T22:34:17;99494.03;;;7.09;100.00
10064;BME280;5071;52.360;13.134;2024-03-02T22:39:21;99498.28;;;7.16;100.00
10064;BME280;5071;52.360;13.134;2024-03-02T22:44:23;99495.03;;;7.01;100.00
10064;BME280;5071;52.360;13.134;2024-03-02T22:49:25;99487.44;;;6.83;100.00
10064;BME280;5071;52.360;13.134;2024-03-02T22:54:29;99485.13;;;6.65;100.00
10064;BME280;5071;52.360;13.134;2024-03-02T22:59:31;99481.31;;;6.81;100.00
10064;BME280;5071;52.360;13.134;2024-03-02T23:04:35;99481.75;;;6.56;100.00
10064;BME280;5071;52.360;13.134;2024-03-02T23:09:39;99481.88;;;6.47;100.00
10064;BME280;5071;52.360;13.134;2024-03-02T23:14:41;99478.47;;;6.42;100.00
10064;BME280;5071;52.360;13.134;2024-03-02T23:19:43;99478.56;;;6.36;100.00
10064;BME280;5071;52.360;13.134;2024-03-02T23:24:47;99457.69;;;6.23;100.00
10064;BME280;5071;52.360;13.134;2024-03-02T23:29:49;99470.13;;;6.14;100.00
10064;BME280;5071;52.360;13.134;2024-03-02T23:34:51;99470.38;;;5.97;100.00
10064;BME280;5071;52.360;13.134;2024-03-02T23:39:54;99461.63;;;5.92;100.00
10064;BME280;5071;52.360;13.134;2024-03-02T23:44:57;99459.09;;;5.84;100.00
10064;BME280;5071;52.360;13.134;2024-03-02T23:49:59;99457.53;;;5.69;100.00
10064;BME280;5071;52.360;13.134;2024-03-02T23:55:02;99453.16;;;5.67;100.00
